Terminal Aerodrome Forecast
Issued by NWS

Home | Current Version | Previous Version | Graphics & Text | Print | Product List | Glossary On
Versions: 1 2 3 4 5 6 7 8 9 10 11 12 13 14 15 16 17 18 19 20 21 22 23 24 25 26 27 28 29
254
FTUS43 KGRB 132323
TAFCWA
TAF
KCWA 132323Z 1400/1424 36010G16KT P6SM -SHSN SCT018 BKN035
      TEMPO 1400/1402 4SM -SHSN OVC018
     FM140300 36005KT P6SM -SHSN BKN035
     FM140500 31004KT P6SM SCT035
     FM141200 28004KT P6SM BKN030
     FM141300 26004KT P6SM BKN024
     FM141700 27006KT P6SM BKN017
      AMD LTD TO CLD VIS AND WIND 1404/1412=

USA.gov is the U.S. government's official web portal to all federal, state and local government web resources and services.